Terminal Aerodrome Forecast
Issued by NWS

Home | Current Version | Previous Version | Text Only | Print | Product List | Glossary On
Versions: 1 2 3 4 5 6 7 8 9 10 11 12 13 14
000
FTUS43 KDTX 021527 AAA
TAFMBS
TAF AMD
KMBS 021527Z 0215/0312 30012KT P6SM SKC
     FM022100 26004KT P6SM SCT250
     FM030300 16005KT P6SM BKN100=

USA.gov is the U.S. government's official web portal to all federal, state and local government web resources and services.